createdAt,value
2022-11-17T00:01:48.880Z,71.58
2022-11-17T00:06:51.167Z,71.63
2022-11-17T00:12:12.037Z,71.92
2022-11-17T00:17:14.509Z,71.83
2022-11-17T00:22:16.693Z,72.23
2022-11-17T00:27:18.993Z,72.46
2022-11-17T00:32:39.531Z,72.52
2022-11-17T00:38:04.570Z,72.31
2022-11-17T00:43:06.880Z,72.59
2022-11-17T00:48:09.268Z,73.10
2022-11-17T00:53:11.477Z,72.79
2022-11-17T00:58:13.714Z,72.92
2022-11-17T01:03:15.970Z,72.71
2022-11-17T01:08:18.182Z,72.74
2022-11-17T01:13:20.430Z,72.49
2022-11-17T01:18:22.647Z,72.81
2022-11-17T01:23:24.841Z,72.92
2022-11-17T01:28:27.233Z,72.96
2022-11-17T01:33:29.996Z,73.02
2022-11-17T01:38:32.790Z,73.35
2022-11-17T01:43:40.138Z,73.16
2022-11-17T01:48:44.927Z,73.32
2022-11-17T01:53:50.855Z,73.15
2022-11-17T01:59:03.173Z,73.19
2022-11-17T02:04:05.722Z,73.72
2022-11-17T02:09:08.541Z,73.82
2022-11-17T02:14:11.092Z,73.72
2022-11-17T02:19:16.972Z,73.40
2022-11-17T02:24:47.952Z,73.57
2022-11-17T02:30:04.349Z,74.01
2022-11-17T02:35:25.329Z,73.67
2022-11-17T02:40:35.119Z,74.18
2022-11-17T02:45:46.078Z,74.33
2022-11-17T02:50:50.162Z,74.46
2022-11-17T02:55:53.937Z,74.25
2022-11-17T03:01:15.928Z,74.49
2022-11-17T03:06:36.535Z,74.27
2022-11-17T03:12:14.189Z,74.44
2022-11-17T03:17:20.085Z,74.71
2022-11-17T03:22:34.204Z,74.76
2022-11-17T03:27:39.636Z,74.88
2022-11-17T03:32:47.292Z,74.80
2022-11-17T03:37:56.631Z,74.86
2022-11-17T03:43:05.941Z,74.87
2022-11-17T03:48:34.465Z,74.89
2022-11-17T03:53:37.317Z,74.47
2022-11-17T03:58:47.074Z,74.60
2022-11-17T04:03:49.465Z,74.88
2022-11-17T04:08:51.804Z,74.74
2022-11-17T04:14:12.494Z,74.71
2022-11-17T04:19:14.705Z,74.56
2022-11-17T04:24:16.907Z,74.86
2022-11-17T04:29:19.438Z,74.67
2022-11-17T04:34:21.625Z,74.62
2022-11-17T04:39:23.881Z,74.70
2022-11-17T04:44:28.708Z,74.77
2022-11-17T04:49:33.092Z,74.85
2022-11-17T04:54:35.819Z,75.30
2022-11-17T04:59:38.040Z,74.81
2022-11-17T05:04:58.592Z,74.80
2022-11-17T05:10:01.765Z,75.24
2022-11-17T05:15:04.140Z,75.18
2022-11-17T05:20:07.440Z,75.07
2022-11-17T05:25:10.165Z,75.50
2022-11-17T05:30:12.791Z,75.40
2022-11-17T05:35:15.038Z,75.47
2022-11-17T05:40:17.449Z,75.41
2022-11-17T05:45:24.504Z,75.77
2022-11-17T05:50:27.247Z,76.72
2022-11-17T05:55:29.571Z,75.93
2022-11-17T06:00:32.976Z,75.97
2022-11-17T06:05:35.321Z,76.33
2022-11-17T06:10:37.815Z,76.28
2022-11-17T06:15:40.226Z,76.23
2022-11-17T06:20:48.866Z,76.66
2022-11-17T06:25:51.288Z,76.81
2022-11-17T06:30:54.743Z,76.26
2022-11-17T06:35:59.873Z,75.96
2022-11-17T06:41:07.524Z,76.15
2022-11-17T06:46:13.859Z,75.53
2022-11-17T06:51:16.217Z,75.71
2022-11-17T06:56:18.781Z,75.68
2022-11-17T07:01:21.466Z,75.59
2022-11-17T07:06:24.379Z,75.45
2022-11-17T07:11:27.130Z,75.46
2022-11-17T07:16:31.308Z,75.75
2022-11-17T07:21:33.773Z,75.48
2022-11-17T07:26:36.095Z,74.95
2022-11-17T07:31:38.355Z,74.79
2022-11-17T07:36:40.654Z,74.41
2022-11-17T07:41:42.979Z,73.72
2022-11-17T07:46:45.229Z,73.24
2022-11-17T07:51:47.492Z,73.05
2022-11-17T07:56:49.827Z,72.64
2022-11-17T08:01:52.391Z,72.57
2022-11-17T08:06:54.838Z,72.44
2022-11-17T08:11:58.241Z,72.25
2022-11-17T08:17:00.787Z,72.08
2022-11-17T08:22:03.159Z,72.14
2022-11-17T08:27:05.431Z,72.58
2022-11-17T08:32:07.844Z,72.58
2022-11-17T08:37:10.119Z,72.13
2022-11-17T08:42:12.433Z,72.12
2022-11-17T08:47:14.665Z,71.72
2022-11-17T08:52:17.179Z,71.66
2022-11-17T08:57:19.676Z,71.62
2022-11-17T09:02:21.982Z,71.26
2022-11-17T09:07:24.411Z,71.22
2022-11-17T09:12:26.842Z,71.39
2022-11-17T09:17:29.145Z,71.05
2022-11-17T09:22:31.394Z,70.94
2022-11-17T09:27:33.861Z,70.98
2022-11-17T09:32:36.547Z,70.49
2022-11-17T09:37:38.961Z,70.29
2022-11-17T09:42:42.577Z,69.67
2022-11-17T09:48:02.558Z,69.05
2022-11-17T09:54:15.930Z,68.30
2022-11-17T09:59:21.984Z,67.65
2022-11-17T10:04:28.663Z,66.79
2022-11-17T10:09:41.794Z,66.62
2022-11-17T10:14:44.931Z,66.26
2022-11-17T10:19:47.257Z,66.24
2022-11-17T10:24:52.559Z,65.84
2022-11-17T10:30:05.808Z,65.39
2022-11-17T10:35:17.349Z,65.39
2022-11-17T10:40:28.802Z,64.87
2022-11-17T10:45:31.291Z,64.69
2022-11-17T10:50:33.620Z,63.72
2022-11-17T10:55:36.695Z,63.92
2022-11-17T11:00:39.175Z,63.70
2022-11-17T11:05:55.290Z,63.68
2022-11-17T11:11:00.351Z,63.59
2022-11-17T11:16:02.909Z,63.49
2022-11-17T11:21:24.791Z,62.72
2022-11-17T11:26:40.541Z,62.20
2022-11-17T11:31:58.646Z,62.02
2022-11-17T11:37:15.567Z,61.60
2022-11-17T11:42:46.591Z,61.40
2022-11-17T11:48:00.873Z,60.53
2022-11-17T11:53:11.953Z,59.36
2022-11-17T11:58:23.928Z,59.61
2022-11-17T12:03:53.552Z,59.13
2022-11-17T12:09:32.063Z,58.86
2022-11-17T12:14:37.868Z,59.28
2022-11-17T12:20:00.525Z,59.74
2022-11-17T12:25:31.821Z,59.83
2022-11-17T12:30:34.162Z,59.79
2022-11-17T12:35:39.512Z,59.90
2022-11-17T12:40:44.653Z,60.12
2022-11-17T12:45:58.746Z,59.97
2022-11-17T12:51:06.525Z,59.85
2022-11-17T12:56:28.203Z,59.78
2022-11-17T13:01:33.318Z,59.74
2022-11-17T13:06:36.750Z,60.16
2022-11-17T13:11:39.515Z,60.43
2022-11-17T13:16:50.990Z,60.47
2022-11-17T13:22:00.341Z,60.74
2022-11-17T13:27:07.786Z,61.26
2022-11-17T13:32:21.655Z,61.72
2022-11-17T13:37:28.862Z,62.09
2022-11-17T13:42:32.887Z,62.92
2022-11-17T13:47:37.847Z,62.89
2022-11-17T13:52:46.486Z,63.10
2022-11-17T13:57:59.216Z,63.26
2022-11-17T14:03:06.057Z,63.42
2022-11-17T14:08:23.346Z,63.52
2022-11-17T14:13:31.394Z,63.95
2022-11-17T14:18:39.376Z,63.53
2022-11-17T14:23:43.718Z,61.70
2022-11-17T14:28:46.287Z,60.04
2022-11-17T14:33:48.590Z,59.50
2022-11-17T14:38:50.971Z,58.58
2022-11-17T14:43:53.256Z,58.06
2022-11-17T14:48:56.308Z,58.05
2022-11-17T14:53:59.330Z,58.42
2022-11-17T14:59:01.626Z,58.34
2022-11-17T15:04:27.371Z,58.38
2022-11-17T15:09:27.311Z,58.42
2022-11-17T15:14:29.578Z,58.28
2022-11-17T15:19:31.858Z,58.39
2022-11-17T15:24:34.147Z,58.83
2022-11-17T15:29:36.582Z,58.59
2022-11-17T15:34:39.044Z,58.22
2022-11-17T15:39:41.480Z,58.13
2022-11-17T15:44:43.758Z,58.20
2022-11-17T15:49:47.228Z,58.68
2022-11-17T15:54:49.474Z,58.78
2022-11-17T15:59:52.327Z,59.22
2022-11-17T16:04:54.749Z,59.29
2022-11-17T16:09:56.960Z,59.66
2022-11-17T16:14:59.272Z,60.09
2022-11-17T16:20:01.786Z,60.47
2022-11-17T16:25:05.946Z,60.65
2022-11-17T16:30:09.292Z,60.50
2022-11-17T16:35:11.950Z,61.62
2022-11-17T16:40:14.218Z,62.19
2022-11-17T16:45:16.509Z,62.35
2022-11-17T16:50:19.044Z,62.47
2022-11-17T16:55:21.380Z,62.16
2022-11-17T17:00:23.743Z,62.45
2022-11-17T17:05:26.718Z,62.75
2022-11-17T17:10:28.922Z,62.83
2022-11-17T17:15:31.302Z,63.27
2022-11-17T17:20:33.941Z,63.30
2022-11-17T17:25:36.199Z,63.41
2022-11-17T17:30:38.665Z,63.44
2022-11-17T17:35:40.904Z,63.78
2022-11-17T17:40:43.261Z,64.05
2022-11-17T17:45:45.591Z,64.20
2022-11-17T17:50:47.985Z,64.45
2022-11-17T17:55:50.235Z,64.84
2022-11-17T18:00:53.457Z,65.49
2022-11-17T18:06:00.558Z,65.55
2022-11-17T18:11:04.491Z,65.82
2022-11-17T18:16:18.299Z,65.86
2022-11-17T18:21:20.839Z,65.94
2022-11-17T18:26:34.098Z,66.50
2022-11-17T18:31:37.862Z,66.31
2022-11-17T18:36:40.095Z,66.93
2022-11-17T18:41:42.934Z,67.09
2022-11-17T18:46:45.564Z,67.04
2022-11-17T18:51:48.035Z,67.18
2022-11-17T18:56:50.916Z,67.31
2022-11-17T19:01:53.274Z,67.57
2022-11-17T19:06:55.550Z,67.96
2022-11-17T19:11:57.992Z,67.94
2022-11-17T19:17:00.353Z,67.91
2022-11-17T19:22:02.788Z,68.33
2022-11-17T19:27:05.160Z,68.50
2022-11-17T19:32:07.595Z,68.29
2022-11-17T19:37:09.826Z,68.34
2022-11-17T19:42:12.734Z,68.33
2022-11-17T19:47:15.055Z,68.64
2022-11-17T19:52:17.514Z,68.78
2022-11-17T19:57:20.527Z,68.84
2022-11-17T20:02:22.952Z,68.89
2022-11-17T20:07:25.445Z,69.12
2022-11-17T20:12:27.782Z,69.59
2022-11-17T20:17:30.102Z,69.75
2022-11-17T20:22:32.606Z,70.05
2022-11-17T20:27:35.106Z,69.58
2022-11-17T20:32:37.559Z,70.11
2022-11-17T20:37:39.924Z,69.83
2022-11-17T20:42:42.296Z,70.12
2022-11-17T20:47:44.507Z,70.44
2022-11-17T20:52:46.896Z,70.59
2022-11-17T20:57:49.162Z,69.92
2022-11-17T21:02:51.404Z,70.03
2022-11-17T21:07:53.624Z,70.63
2022-11-17T21:12:55.814Z,70.88
2022-11-17T21:18:16.438Z,70.40
2022-11-17T21:23:18.760Z,70.78
2022-11-17T21:28:21.153Z,71.11
2022-11-17T21:33:23.634Z,71.14
2022-11-17T21:38:25.834Z,71.12
2022-11-17T21:43:28.242Z,71.00
2022-11-17T21:48:30.567Z,70.90
2022-11-17T21:53:33.132Z,70.68
2022-11-17T21:58:35.516Z,70.76
2022-11-17T22:03:38.748Z,71.20
2022-11-17T22:08:43.120Z,71.42
2022-11-17T22:13:45.340Z,71.47
2022-11-17T22:18:47.667Z,71.16
2022-11-17T22:23:50.546Z,71.30
2022-11-17T22:28:54.852Z,71.25
2022-11-17T22:33:57.178Z,71.34
2022-11-17T22:38:59.460Z,72.07
2022-11-17T22:44:01.718Z,71.35
2022-11-17T22:49:04.144Z,71.36
2022-11-17T22:54:08.389Z,71.33
2022-11-17T22:59:10.641Z,71.73
2022-11-17T23:04:13.444Z,71.40
2022-11-17T23:09:16.333Z,71.72
2022-11-17T23:14:18.663Z,71.85
2022-11-17T23:19:21.224Z,72.17
2022-11-17T23:24:23.678Z,72.33
2022-11-17T23:29:25.965Z,71.89
2022-11-17T23:34:28.274Z,72.09
2022-11-17T23:39:30.629Z,72.19
2022-11-17T23:44:33.055Z,72.79
2022-11-17T23:49:35.372Z,72.36
2022-11-17T23:54:37.980Z,71.95
2022-11-17T23:59:40.432Z,72.23
